<?xml version="1.0" encoding="UTF-8" ?><gpx version="1.0" creator="GPSLogger - http://gpslogger.mendhak.com/" xmlns:xsi="http://www.w3.org/2001/XMLSchema-instance" xmlns="http://www.topografix.com/GPX/1/0" xsi:schemaLocation="http://www.topografix.com/GPX/1/0 http://www.topografix.com/GPX/1/0/gpx.xsd"><time>2015-08-09T11:48:03Z</time><bounds /><trk><trkseg><trkpt lat="47.14209352" lon="9.77818609"><ele>915.0999755859375</ele><speed>0.0</speed><hdop>3.0</hdop><src>gps</src><sat>7</sat><time>2015-08-09T11:48:03Z</time></trkpt>
<trkpt lat="47.14199273" lon="9.7831376"><ele>871.7000122070313</ele><speed>0.0</speed><hdop>7.0</hdop><src>gps</src><sat>8</sat><time>2015-08-09T11:57:40Z</time></trkpt>
<trkpt lat="47.14190454" lon="9.78334185"><ele>828.7999877929688</ele><speed>0.0</speed><hdop>11.6</hdop><src>gps</src><sat>7</sat><time>2015-08-09T12:02:42Z</time></trkpt>
<trkpt lat="47.14172408" lon="9.78339756"><ele>843.9000244140625</ele><speed>0.0</speed><hdop>8.0</hdop><src>gps</src><sat>8</sat><time>2015-08-09T12:06:59Z</time></trkpt>
<trkpt lat="47.14159901" lon="9.78264291"><ele>880.5999755859375</ele><speed>0.0</speed><hdop>10.2</hdop><src>gps</src><sat>8</sat><time>2015-08-09T12:08:15Z</time></trkpt>
<trkpt lat="47.14025459" lon="9.78554608"><ele>751.2999877929688</ele><hdop>24.8</hdop><src>gps</src><sat>6</sat><time>2015-08-09T12:31:53Z</time></trkpt>
<trkpt lat="47.14106987" lon="9.78831597"><ele>700.2999877929688</ele><speed>0.0</speed><hdop>29.0</hdop><src>gps</src><sat>6</sat><time>2015-08-09T12:38:59Z</time></trkpt>
<trkpt lat="47.14122824" lon="9.78838258"><ele>715.0999755859375</ele><speed>0.0</speed><hdop>29.0</hdop><src>gps</src><sat>6</sat><time>2015-08-09T12:40:30Z</time></trkpt>
<trkpt lat="47.14324991" lon="9.78949274"><ele>801.5</ele><course>27.9</course><speed>0.5</speed><hdop>10.4</hdop><src>gps</src><sat>6</sat><time>2015-08-09T12:42:39Z</time></trkpt>
<trkpt lat="47.14388898" lon="9.79081124"><ele>761.2999877929688</ele><speed>0.0</speed><hdop>10.6</hdop><src>gps</src><sat>7</sat><time>2015-08-09T12:47:01Z</time></trkpt>
<trkpt lat="47.1444309" lon="9.79155783"><ele>819.5</ele><hdop>19.4</hdop><src>gps</src><sat>5</sat><time>2015-08-09T12:50:59Z</time></trkpt>
<trkpt lat="47.14380207" lon="9.79221467"><ele>857.4000244140625</ele><speed>0.0</speed><hdop>14.0</hdop><src>gps</src><sat>5</sat><time>2015-08-09T12:55:11Z</time></trkpt>
<trkpt lat="47.14374919" lon="9.79225683"><ele>856.5</ele><hdop>25.4</hdop><src>gps</src><sat>5</sat><time>2015-08-09T12:56:41Z</time></trkpt>
<trkpt lat="47.14443323" lon="9.79186866"><ele>839.4000244140625</ele><hdop>19.6</hdop><src>gps</src><sat>6</sat><time>2015-08-09T12:58:26Z</time></trkpt>
<trkpt lat="47.14426223" lon="9.79177939"><ele>797.9000244140625</ele><hdop>14.6</hdop><src>gps</src><sat>7</sat><time>2015-08-09T13:00:22Z</time></trkpt>
<trkpt lat="47.14460064" lon="9.79261619"><ele>775.7999877929688</ele><hdop>13.2</hdop><src>gps</src><sat>6</sat><time>2015-08-09T13:03:11Z</time></trkpt>
<trkpt lat="47.14518878" lon="9.79384911"><ele>731.0999755859375</ele><hdop>15.4</hdop><src>gps</src><sat>6</sat><time>2015-08-09T13:05:16Z</time></trkpt>
<trkpt lat="47.14559451" lon="9.79497446"><ele>771.2000122070313</ele><hdop>14.2</hdop><src>gps</src><sat>6</sat><time>2015-08-09T13:06:44Z</time></trkpt>
<trkpt lat="47.14648149" lon="9.79672143"><ele>889.2999877929688</ele><hdop>13.0</hdop><src>gps</src><sat>5</sat><time>2015-08-09T13:08:45Z</time></trkpt>
<trkpt lat="47.14829887" lon="9.79780429"><ele>978.2999877929688</ele><hdop>22.4</hdop><src>gps</src><sat>7</sat><time>2015-08-09T13:12:30Z</time></trkpt>
<trkpt lat="47.14826683" lon="9.79797269"><ele>975.4000244140625</ele><hdop>11.2</hdop><src>gps</src><sat>6</sat><time>2015-08-09T13:13:46Z</time></trkpt>
<trkpt lat="47.14846685" lon="9.79797732"><ele>980.7000122070313</ele><course>107.3</course><speed>1.0</speed><hdop>12.0</hdop><src>gps</src><sat>6</sat><time>2015-08-09T13:15:12Z</time></trkpt>
<trkpt lat="47.14783506" lon="9.79753989"><ele>986.2999877929688</ele><hdop>16.4</hdop><src>gps</src><sat>5</sat><time>2015-08-09T13:16:43Z</time></trkpt>
<trkpt lat="47.14841088" lon="9.79827198"><ele>997.5999755859375</ele><course>29.2</course><speed>2.25</speed><hdop>12.4</hdop><src>gps</src><sat>7</sat><time>2015-08-09T13:18:22Z</time></trkpt>
<trkpt lat="47.14884606" lon="9.79868144"><ele>987.0</ele><hdop>16.0</hdop><src>gps</src><sat>5</sat><time>2015-08-09T13:19:54Z</time></trkpt>
<trkpt lat="47.1490698" lon="9.79892859"><ele>923.0999755859375</ele><speed>0.0</speed><hdop>9.6</hdop><src>gps</src><sat>7</sat><time>2015-08-09T13:21:03Z</time></trkpt>
</trkseg></trk></gpx>